sensor_id;sensor_type;location;lat;lon;timestamp;pressure;altitude;pressure_sealevel;temperature;humidity
44148;BME280;29810;55.848;37.368;2022-07-03T00:02:44;99238.94;;;16.25;67.01
44148;BME280;29810;55.848;37.368;2022-07-03T00:05:46;99231.16;;;16.37;69.18
44148;BME280;29810;55.848;37.368;2022-07-03T00:08:47;99219.19;;;16.46;69.79
44148;BME280;29810;55.848;37.368;2022-07-03T00:11:50;99218.06;;;16.50;68.92
44148;BME280;29810;55.848;37.368;2022-07-03T00:14:51;99223.53;;;16.62;65.62
44148;BME280;29810;55.848;37.368;2022-07-03T00:17:53;99217.22;;;16.64;69.53
44148;BME280;29810;55.848;37.368;2022-07-03T00:21:05;99212.25;;;16.74;69.28
44148;BME280;29810;55.848;37.368;2022-07-03T00:24:16;99208.66;;;16.75;67.49
44148;BME280;29810;55.848;37.368;2022-07-03T00:27:21;99212.59;;;16.82;68.90
44148;BME280;29810;55.848;37.368;2022-07-03T00:30:26;99199.06;;;16.88;70.05
44148;BME280;29810;55.848;37.368;2022-07-03T00:33:30;99199.53;;;16.95;70.89
44148;BME280;29810;55.848;37.368;2022-07-03T00:36:36;99187.22;;;16.96;70.18
44148;BME280;29810;55.848;37.368;2022-07-03T00:39:42;99185.34;;;16.98;71.77
44148;BME280;29810;55.848;37.368;2022-07-03T00:42:49;99186.06;;;17.00;71.18
44148;BME280;29810;55.848;37.368;2022-07-03T00:45:50;99179.88;;;17.01;72.79
44148;BME280;29810;55.848;37.368;2022-07-03T00:48:54;99178.44;;;17.10;74.37
44148;BME280;29810;55.848;37.368;2022-07-03T00:51:56;99179.09;;;17.13;75.56
44148;BME280;29810;55.848;37.368;2022-07-03T00:54:59;99181.31;;;17.19;75.88
44148;BME280;29810;55.848;37.368;2022-07-03T00:58:01;99184.31;;;17.28;76.53
44148;BME280;29810;55.848;37.368;2022-07-03T01:01:03;99183.69;;;17.37;77.08
44148;BME280;29810;55.848;37.368;2022-07-03T01:04:22;99181.81;;;17.52;77.31
44148;BME280;29810;55.848;37.368;2022-07-03T01:14:10;99185.94;;;18.48;72.93
44148;BME280;29810;55.848;37.368;2022-07-03T01:17:25;99184.03;;;18.87;70.61
44148;BME280;29810;55.848;37.368;2022-07-03T01:20:28;99189.78;;;19.42;66.76
44148;BME280;29810;55.848;37.368;2022-07-03T01:26:55;99180.72;;;20.05;60.25
44148;BME280;29810;55.848;37.368;2022-07-03T01:30:07;99176.06;;;20.65;60.25
44148;BME280;29810;55.848;37.368;2022-07-03T01:36:15;99160.81;;;21.77;54.03
44148;BME280;29810;55.848;37.368;2022-07-03T01:39:18;99169.34;;;22.33;57.67
44148;BME280;29810;55.848;37.368;2022-07-03T01:42:19;99162.69;;;22.89;56.71
44148;BME280;29810;55.848;37.368;2022-07-03T01:45:26;99159.56;;;23.35;54.31
44148;BME280;29810;55.848;37.368;2022-07-03T01:48:31;99165.69;;;23.74;50.35
44148;BME280;29810;55.848;37.368;2022-07-03T01:51:34;99165.22;;;24.08;52.31
44148;BME280;29810;55.848;37.368;2022-07-03T01:54:38;99162.94;;;24.51;51.50
44148;BME280;29810;55.848;37.368;2022-07-03T01:57:47;99155.09;;;24.87;47.63
44148;BME280;29810;55.848;37.368;2022-07-03T02:07:40;99144.88;;;26.68;45.50
44148;BME280;29810;55.848;37.368;2022-07-03T02:10:52;99152.69;;;26.96;45.39
44148;BME280;29810;55.848;37.368;2022-07-03T02:14:19;99125.72;;;26.81;41.86
44148;BME280;29810;55.848;37.368;2022-07-03T02:17:26;99141.13;;;27.04;41.59
44148;BME280;29810;55.848;37.368;2022-07-03T02:20:35;99137.66;;;27.20;40.45
44148;BME280;29810;55.848;37.368;2022-07-03T02:23:48;99141.63;;;26.91;36.26
44148;BME280;29810;55.848;37.368;2022-07-03T02:27:03;99141.53;;;26.66;37.26
44148;BME280;29810;55.848;37.368;2022-07-03T02:30:06;99140.31;;;27.11;37.25
44148;BME280;29810;55.848;37.368;2022-07-03T02:33:09;99143.56;;;27.56;39.07
44148;BME280;29810;55.848;37.368;2022-07-03T02:36:14;99132.66;;;27.33;38.80
44148;BME280;29810;55.848;37.368;2022-07-03T02:39:26;99136.53;;;26.02;37.24
44148;BME280;29810;55.848;37.368;2022-07-03T02:42:37;99133.16;;;26.61;37.98
44148;BME280;29810;55.848;37.368;2022-07-03T02:46:05;99133.84;;;26.20;36.71
44148;BME280;29810;55.848;37.368;2022-07-03T02:55:44;99126.06;;;26.94;37.28
44148;BME280;29810;55.848;37.368;2022-07-03T03:02:58;99125.13;;;29.52;33.43
44148;BME280;29810;55.848;37.368;2022-07-03T03:05:34;99126.53;;;28.22;32.93
44148;BME280;29810;55.848;37.368;2022-07-03T03:08:49;99124.94;;;27.22;34.83
44148;BME280;29810;55.848;37.368;2022-07-03T03:11:52;99137.03;;;27.59;34.76
44148;BME280;29810;55.848;37.368;2022-07-03T03:15:00;99134.09;;;28.58;32.81
44148;BME280;29810;55.848;37.368;2022-07-03T03:18:06;99124.84;;;28.61;32.53
44148;BME280;29810;55.848;37.368;2022-07-03T03:21:10;99131.00;;;27.57;34.19
44148;BME280;29810;55.848;37.368;2022-07-03T03:24:11;99141.16;;;28.03;33.82
44148;BME280;29810;55.848;37.368;2022-07-03T03:27:14;99126.53;;;28.22;33.62
44148;BME280;29810;55.848;37.368;2022-07-03T03:30:16;99124.19;;;28.27;33.49
44148;BME280;29810;55.848;37.368;2022-07-03T03:33:19;99122.69;;;28.16;33.65
44148;BME280;29810;55.848;37.368;2022-07-03T03:36:20;99121.41;;;27.87;34.51
44148;BME280;29810;55.848;37.368;2022-07-03T03:39:23;99117.25;;;28.81;33.04
44148;BME280;29810;55.848;37.368;2022-07-03T03:42:25;99115.09;;;29.84;31.61
44148;BME280;29810;55.848;37.368;2022-07-03T03:45:27;99108.19;;;29.89;31.28
44148;BME280;29810;55.848;37.368;2022-07-03T03:48:32;99111.06;;;29.88;31.46
44148;BME280;29810;55.848;37.368;2022-07-03T03:51:35;99109.75;;;30.29;31.01
44148;BME280;29810;55.848;37.368;2022-07-03T03:54:36;99110.47;;;30.37;30.99
44148;BME280;29810;55.848;37.368;2022-07-03T03:57:38;99113.09;;;30.01;31.47
44148;BME280;29810;55.848;37.368;2022-07-03T04:00:39;99107.22;;;30.42;30.72
44148;BME280;29810;55.848;37.368;2022-07-03T04:03:41;99092.50;;;30.53;30.72
44148;BME280;29810;55.848;37.368;2022-07-03T04:06:44;99102.03;;;30.40;31.09
44148;BME280;29810;55.848;37.368;2022-07-03T04:09:45;99092.94;;;31.15;30.15
44148;BME280;29810;55.848;37.368;2022-07-03T04:12:47;99085.47;;;32.99;27.64
44148;BME280;29810;55.848;37.368;2022-07-03T04:15:50;99085.66;;;33.98;26.21
44148;BME280;29810;55.848;37.368;2022-07-03T04:18:51;99099.97;;;32.78;27.57
44148;BME280;29810;55.848;37.368;2022-07-03T04:21:53;99095.00;;;31.98;28.82
44148;BME280;29810;55.848;37.368;2022-07-03T04:24:54;99104.31;;;31.95;29.04
44148;BME280;29810;55.848;37.368;2022-07-03T04:27:56;99101.87;;;31.65;29.50
44148;BME280;29810;55.848;37.368;2022-07-03T04:30:58;99097.22;;;31.31;30.00
44148;BME280;29810;55.848;37.368;2022-07-03T04:34:00;99088.91;;;31.54;29.75
44148;BME280;29810;55.848;37.368;2022-07-03T04:37:02;99094.50;;;32.64;28.20
44148;BME280;29810;55.848;37.368;2022-07-03T04:40:04;99103.75;;;32.00;29.40
44148;BME280;29810;55.848;37.368;2022-07-03T04:43:06;99100.69;;;32.51;28.63
44148;BME280;29810;55.848;37.368;2022-07-03T04:46:07;99096.31;;;33.32;27.73
44148;BME280;29810;55.848;37.368;2022-07-03T04:49:09;99095.50;;;33.39;27.44
44148;BME280;29810;55.848;37.368;2022-07-03T04:52:10;99088.19;;;33.79;27.20
44148;BME280;29810;55.848;37.368;2022-07-03T04:55:12;99085.84;;;34.10;26.64
44148;BME280;29810;55.848;37.368;2022-07-03T04:58:13;99088.44;;;34.82;26.17
44148;BME280;29810;55.848;37.368;2022-07-03T05:01:15;99085.87;;;34.55;26.26
44148;BME280;29810;55.848;37.368;2022-07-03T05:04:17;99093.31;;;35.05;25.83
44148;BME280;29810;55.848;37.368;2022-07-03T05:07:18;99089.50;;;34.36;26.81
44148;BME280;29810;55.848;37.368;2022-07-03T05:10:20;99092.31;;;34.54;26.62
44148;BME280;29810;55.848;37.368;2022-07-03T05:13:21;99090.38;;;35.07;25.98
44148;BME280;29810;55.848;37.368;2022-07-03T05:16:23;99078.84;;;35.87;24.99
44148;BME280;29810;55.848;37.368;2022-07-03T05:19:24;99085.87;;;37.47;23.25
44148;BME280;29810;55.848;37.368;2022-07-03T05:22:26;99072.78;;;38.20;22.38
44148;BME280;29810;55.848;37.368;2022-07-03T05:25:30;99077.00;;;38.69;21.78
44148;BME280;29810;55.848;37.368;2022-07-03T05:28:32;99083.16;;;37.83;22.43
44148;BME280;29810;55.848;37.368;2022-07-03T05:31:33;99079.41;;;38.24;22.15
44148;BME280;29810;55.848;37.368;2022-07-03T05:34:35;99081.66;;;38.27;22.05
44148;BME280;29810;55.848;37.368;2022-07-03T05:37:37;99076.44;;;36.95;23.50
44148;BME280;29810;55.848;37.368;2022-07-03T05:40:38;99082.66;;;37.86;22.85
44148;BME280;29810;55.848;37.368;2022-07-03T05:43:40;99078.13;;;38.27;22.26
44148;BME280;29810;55.848;37.368;2022-07-03T05:46:42;99077.00;;;37.87;22.90
44148;BME280;29810;55.848;37.368;2022-07-03T05:49:43;99077.38;;;38.89;21.84
44148;BME280;29810;55.848;37.368;2022-07-03T05:52:45;99082.34;;;39.09;21.52
44148;BME280;29810;55.848;37.368;2022-07-03T05:55:46;99083.47;;;38.51;21.98
44148;BME280;29810;55.848;37.368;2022-07-03T05:58:48;99090.03;;;37.85;23.02
44148;BME280;29810;55.848;37.368;2022-07-03T06:01:49;99080.34;;;38.18;22.64
44148;BME280;29810;55.848;37.368;2022-07-03T06:04:51;99072.59;;;38.10;22.89
44148;BME280;29810;55.848;37.368;2022-07-03T06:07:52;99077.00;;;39.49;21.53
44148;BME280;29810;55.848;37.368;2022-07-03T06:10:54;99068.31;;;39.35;21.54
44148;BME280;29810;55.848;37.368;2022-07-03T06:13:56;99078.16;;;39.92;21.08
44148;BME280;29810;55.848;37.368;2022-07-03T06:16:58;99065.28;;;40.86;20.24
44148;BME280;29810;55.848;37.368;2022-07-03T06:20:00;99074.22;;;41.04;19.87
44148;BME280;29810;55.848;37.368;2022-07-03T06:23:01;99079.78;;;39.54;21.40
44148;BME280;29810;55.848;37.368;2022-07-03T06:26:03;99078.97;;;39.36;21.94
44148;BME280;29810;55.848;37.368;2022-07-03T06:29:05;99080.34;;;38.59;22.65
44148;BME280;29810;55.848;37.368;2022-07-03T06:32:06;99082.12;;;38.24;23.11
44148;BME280;29810;55.848;37.368;2022-07-03T06:35:08;99083.72;;;37.97;23.48
44148;BME280;29810;55.848;37.368;2022-07-03T06:38:09;99082.75;;;37.20;24.49
44148;BME280;29810;55.848;37.368;2022-07-03T06:41:11;99084.13;;;36.68;25.28
44148;BME280;29810;55.848;37.368;2022-07-03T06:44:13;99087.50;;;35.27;27.30
44148;BME280;29810;55.848;37.368;2022-07-03T06:47:14;99091.34;;;33.29;30.32
44148;BME280;29810;55.848;37.368;2022-07-03T06:50:16;99095.66;;;32.00;32.88
44148;BME280;29810;55.848;37.368;2022-07-03T06:53:18;99098.28;;;31.08;34.31
44148;BME280;29810;55.848;37.368;2022-07-03T06:56:19;99116.91;;;29.92;34.77
44148;BME280;29810;55.848;37.368;2022-07-03T06:59:21;99119.50;;;28.61;37.72
44148;BME280;29810;55.848;37.368;2022-07-03T07:02:23;99119.50;;;28.21;38.56
44148;BME280;29810;55.848;37.368;2022-07-03T07:05:25;99117.81;;;28.28;38.65
44148;BME280;29810;55.848;37.368;2022-07-03T07:08:27;99114.06;;;28.46;38.40
44148;BME280;29810;55.848;37.368;2022-07-03T07:11:28;99109.75;;;28.36;39.02
44148;BME280;29810;55.848;37.368;2022-07-03T07:14:30;99106.88;;;27.82;40.61
44148;BME280;29810;55.848;37.368;2022-07-03T07:17:32;99106.91;;;27.40;41.02
44148;BME280;29810;55.848;37.368;2022-07-03T07:20:33;99106.38;;;27.12;41.29
44148;BME280;29810;55.848;37.368;2022-07-03T07:23:35;99108.53;;;26.92;40.67
44148;BME280;29810;55.848;37.368;2022-07-03T07:26:37;99109.69;;;26.89;40.88
44148;BME280;29810;55.848;37.368;2022-07-03T07:29:39;99115.41;;;27.03;41.44
44148;BME280;29810;55.848;37.368;2022-07-03T07:32:40;99119.25;;;27.08;41.88
44148;BME280;29810;55.848;37.368;2022-07-03T07:35:42;99115.19;;;26.88;41.99
44148;BME280;29810;55.848;37.368;2022-07-03T07:38:43;99124.09;;;26.97;40.49
44148;BME280;29810;55.848;37.368;2022-07-03T07:41:45;99111.63;;;26.71;40.28
44148;BME280;29810;55.848;37.368;2022-07-03T07:44:47;99106.53;;;26.94;41.17
44148;BME280;29810;55.848;37.368;2022-07-03T07:47:49;99108.56;;;27.08;41.43
44148;BME280;29810;55.848;37.368;2022-07-03T07:50:50;99101.72;;;27.39;40.97
44148;BME280;29810;55.848;37.368;2022-07-03T07:53:53;99112.44;;;27.47;39.79
44148;BME280;29810;55.848;37.368;2022-07-03T07:56:58;99108.06;;;27.38;39.84
44148;BME280;29810;55.848;37.368;2022-07-03T08:00:11;99108.72;;;27.23;39.92
44148;BME280;29810;55.848;37.368;2022-07-03T08:03:13;99110.19;;;26.93;40.92
44148;BME280;29810;55.848;37.368;2022-07-03T08:06:34;99105.91;;;27.25;40.15
44148;BME280;29810;55.848;37.368;2022-07-03T08:09:35;99116.94;;;27.30;38.79
44148;BME280;29810;55.848;37.368;2022-07-03T08:12:37;99101.19;;;27.35;37.09
44148;BME280;29810;55.848;37.368;2022-07-03T08:15:39;99090.84;;;27.24;36.44
44148;BME280;29810;55.848;37.368;2022-07-03T08:18:42;99107.22;;;27.37;36.63
44148;BME280;29810;55.848;37.368;2022-07-03T08:21:43;99114.44;;;27.37;36.63
44148;BME280;29810;55.848;37.368;2022-07-03T08:24:45;99104.88;;;27.26;37.00
44148;BME280;29810;55.848;37.368;2022-07-03T08:27:47;99106.91;;;27.40;37.61
44148;BME280;29810;55.848;37.368;2022-07-03T08:30:48;99101.56;;;27.57;37.84
44148;BME280;29810;55.848;37.368;2022-07-03T08:33:50;99097.84;;;27.33;37.74
44148;BME280;29810;55.848;37.368;2022-07-03T08:36:52;99104.22;;;27.40;36.89
44148;BME280;29810;55.848;37.368;2022-07-03T08:39:53;99095.50;;;27.55;35.34
44148;BME280;29810;55.848;37.368;2022-07-03T08:42:57;99110.56;;;27.56;35.44
44148;BME280;29810;55.848;37.368;2022-07-03T08:46:00;99110.03;;;27.77;34.82
44148;BME280;29810;55.848;37.368;2022-07-03T08:49:03;99108.84;;;27.96;34.69
44148;BME280;29810;55.848;37.368;2022-07-03T08:52:07;99101.41;;;27.50;35.78
44148;BME280;29810;55.848;37.368;2022-07-03T08:55:12;99093.69;;;27.72;36.10
44148;BME280;29810;55.848;37.368;2022-07-03T08:58:15;99088.16;;;27.65;34.84
44148;BME280;29810;55.848;37.368;2022-07-03T09:01:18;99102.97;;;27.92;34.41
44148;BME280;29810;55.848;37.368;2022-07-03T09:04:21;99098.34;;;27.78;35.17
44148;BME280;29810;55.848;37.368;2022-07-03T09:07:24;99096.34;;;27.64;35.18
44148;BME280;29810;55.848;37.368;2022-07-03T09:10:27;99095.47;;;27.88;34.72
44148;BME280;29810;55.848;37.368;2022-07-03T09:13:30;99094.09;;;28.00;34.66
44148;BME280;29810;55.848;37.368;2022-07-03T09:16:35;99104.41;;;27.55;34.18
44148;BME280;29810;55.848;37.368;2022-07-03T09:19:41;99097.88;;;27.25;35.10
44148;BME280;29810;55.848;37.368;2022-07-03T09:22:43;99098.22;;;27.47;34.76
44148;BME280;29810;55.848;37.368;2022-07-03T09:25:52;99105.06;;;27.66;33.60
44148;BME280;29810;55.848;37.368;2022-07-03T09:28:54;99105.56;;;27.53;34.57
44148;BME280;29810;55.848;37.368;2022-07-03T09:31:58;99092.00;;;27.71;34.48
44148;BME280;29810;55.848;37.368;2022-07-03T09:35:19;99097.81;;;27.91;34.07
44148;BME280;29810;55.848;37.368;2022-07-03T09:38:22;99114.19;;;28.04;32.95
44148;BME280;29810;55.848;37.368;2022-07-03T09:41:23;99106.09;;;27.56;31.76
44148;BME280;29810;55.848;37.368;2022-07-03T09:47:30;99102.72;;;27.38;30.24
44148;BME280;29810;55.848;37.368;2022-07-03T09:50:31;99091.19;;;27.46;31.27
44148;BME280;29810;55.848;37.368;2022-07-03T09:56:55;99114.12;;;27.56;31.65
44148;BME280;29810;55.848;37.368;2022-07-03T10:03:20;99096.19;;;27.57;30.15
44148;BME280;29810;55.848;37.368;2022-07-03T10:06:21;99098.53;;;27.52;31.49
44148;BME280;29810;55.848;37.368;2022-07-03T10:09:34;99105.53;;;27.36;31.67
44148;BME280;29810;55.848;37.368;2022-07-03T10:12:35;99109.22;;;27.60;31.38
44148;BME280;29810;55.848;37.368;2022-07-03T10:15:38;99094.50;;;27.56;31.86
44148;BME280;29810;55.848;37.368;2022-07-03T10:18:42;99089.81;;;27.66;31.73
44148;BME280;29810;55.848;37.368;2022-07-03T10:22:03;99083.78;;;27.72;31.33
44148;BME280;29810;55.848;37.368;2022-07-03T10:25:08;99092.00;;;27.71;32.00
44148;BME280;29810;55.848;37.368;2022-07-03T10:28:13;99096.53;;;27.62;31.72
44148;BME280;29810;55.848;37.368;2022-07-03T10:31:17;99111.38;;;27.89;31.32
44148;BME280;29810;55.848;37.368;2022-07-03T10:34:22;99096.47;;;27.87;31.08
44148;BME280;29810;55.848;37.368;2022-07-03T10:37:26;99102.34;;;27.90;31.78
44148;BME280;29810;55.848;37.368;2022-07-03T10:44:02;99086.03;;;28.17;32.04
44148;BME280;29810;55.848;37.368;2022-07-03T10:47:43;99081.69;;;28.16;31.82
44148;BME280;29810;55.848;37.368;2022-07-03T10:50:45;99084.81;;;28.28;32.15
44148;BME280;29810;55.848;37.368;2022-07-03T10:53:47;99093.09;;;28.01;31.45
44148;BME280;29810;55.848;37.368;2022-07-03T11:00:00;99073.63;;;28.16;32.09
44148;BME280;29810;55.848;37.368;2022-07-03T11:03:04;99054.56;;;28.11;31.64
44148;BME280;29810;55.848;37.368;2022-07-03T11:06:06;99065.00;;;28.37;30.66
44148;BME280;29810;55.848;37.368;2022-07-03T11:09:14;99073.88;;;28.37;30.10
44148;BME280;29810;55.848;37.368;2022-07-03T11:15:57;99065.91;;;28.21;30.32
44148;BME280;29810;55.848;37.368;2022-07-03T11:18:59;99049.72;;;28.14;30.88
44148;BME280;29810;55.848;37.368;2022-07-03T11:22:03;99058.19;;;28.26;31.15
44148;BME280;29810;55.848;37.368;2022-07-03T11:25:08;99078.97;;;28.24;31.36
44148;BME280;29810;55.848;37.368;2022-07-03T11:31:35;99078.31;;;28.22;30.26
44148;BME280;29810;55.848;37.368;2022-07-03T11:34:42;99057.66;;;28.31;30.12
44148;BME280;29810;55.848;37.368;2022-07-03T11:37:45;99056.25;;;28.43;30.08
44148;BME280;29810;55.848;37.368;2022-07-03T11:40:49;99053.34;;;28.53;29.29
44148;BME280;29810;55.848;37.368;2022-07-03T11:43:58;99041.63;;;28.54;29.14
44148;BME280;29810;55.848;37.368;2022-07-03T11:47:00;99068.72;;;28.59;29.56
44148;BME280;29810;55.848;37.368;2022-07-03T11:50:02;99051.84;;;28.50;29.67
44148;BME280;29810;55.848;37.368;2022-07-03T11:53:21;99040.25;;;28.58;29.62
44148;BME280;29810;55.848;37.368;2022-07-03T11:56:23;99042.56;;;28.69;30.45
44148;BME280;29810;55.848;37.368;2022-07-03T11:59:25;99032.69;;;28.62;29.92
44148;BME280;29810;55.848;37.368;2022-07-03T12:02:27;99050.25;;;28.64;28.64
44148;BME280;29810;55.848;37.368;2022-07-03T12:05:29;99049.34;;;28.49;29.03
44148;BME280;29810;55.848;37.368;2022-07-03T12:08:31;99058.69;;;28.53;28.84
44148;BME280;29810;55.848;37.368;2022-07-03T12:11:34;99040.44;;;28.56;29.03
44148;BME280;29810;55.848;37.368;2022-07-03T12:14:50;99031.66;;;28.71;29.18
44148;BME280;29810;55.848;37.368;2022-07-03T12:17:52;99043.38;;;28.93;28.72
44148;BME280;29810;55.848;37.368;2022-07-03T12:20:53;99035.94;;;28.80;29.53
44148;BME280;29810;55.848;37.368;2022-07-03T12:23:55;99028.25;;;28.77;29.34
44148;BME280;29810;55.848;37.368;2022-07-03T12:26:57;99041.44;;;28.55;30.25
44148;BME280;29810;55.848;37.368;2022-07-03T12:30:03;99030.63;;;28.72;28.52
44148;BME280;29810;55.848;37.368;2022-07-03T12:33:06;99033.03;;;28.90;27.88
44148;BME280;29810;55.848;37.368;2022-07-03T12:36:09;99026.75;;;28.98;27.82
44148;BME280;29810;55.848;37.368;2022-07-03T12:39:10;99019.03;;;29.18;28.28
44148;BME280;29810;55.848;37.368;2022-07-03T12:42:19;99021.44;;;29.13;28.05
44148;BME280;29810;55.848;37.368;2022-07-03T12:45:24;99050.78;;;28.91;28.37
44148;BME280;29810;55.848;37.368;2022-07-03T12:48:26;99027.25;;;29.01;27.79
44148;BME280;29810;55.848;37.368;2022-07-03T12:51:48;99031.00;;;28.69;27.37
44148;BME280;29810;55.848;37.368;2022-07-03T12:54:50;99020.47;;;28.59;28.10
44148;BME280;29810;55.848;37.368;2022-07-03T13:01:33;99023.75;;;29.16;27.82
44148;BME280;29810;55.848;37.368;2022-07-03T13:04:36;99012.16;;;29.00;27.34
44148;BME280;29810;55.848;37.368;2022-07-03T13:07:40;99009.38;;;29.08;26.85
44148;BME280;29810;55.848;37.368;2022-07-03T13:10:41;99020.41;;;29.14;27.42
44148;BME280;29810;55.848;37.368;2022-07-03T13:13:47;99020.50;;;29.05;27.98
44148;BME280;29810;55.848;37.368;2022-07-03T13:16:53;99018.53;;;28.99;28.45
44148;BME280;29810;55.848;37.368;2022-07-03T13:19:55;99006.97;;;28.99;28.22
44148;BME280;29810;55.848;37.368;2022-07-03T13:22:58;99000.69;;;29.06;27.95
44148;BME280;29810;55.848;37.368;2022-07-03T13:26:00;99007.91;;;29.29;27.08
44148;BME280;29810;55.848;37.368;2022-07-03T13:29:02;99008.72;;;29.06;26.55
44148;BME280;29810;55.848;37.368;2022-07-03T13:32:05;99003.41;;;28.83;26.44
44148;BME280;29810;55.848;37.368;2022-07-03T13:35:07;99004.72;;;28.87;26.45
44148;BME280;29810;55.848;37.368;2022-07-03T13:38:09;98994.97;;;29.10;26.10
44148;BME280;29810;55.848;37.368;2022-07-03T13:41:11;98997.22;;;29.21;26.25
44148;BME280;29810;55.848;37.368;2022-07-03T13:44:12;99010.78;;;29.19;25.02
44148;BME280;29810;55.848;37.368;2022-07-03T13:47:14;98996.97;;;29.07;25.22
44148;BME280;29810;55.848;37.368;2022-07-03T13:50:16;98996.97;;;29.07;25.61
44148;BME280;29810;55.848;37.368;2022-07-03T13:53:18;98999.59;;;29.16;25.83
44148;BME280;29810;55.848;37.368;2022-07-03T13:56:20;98990.41;;;29.10;26.33
44148;BME280;29810;55.848;37.368;2022-07-03T13:59:22;98993.28;;;29.08;26.90
44148;BME280;29810;55.848;37.368;2022-07-03T14:02:23;98982.84;;;29.14;27.06
44148;BME280;29810;55.848;37.368;2022-07-03T14:05:26;98989.41;;;29.26;26.69
44148;BME280;29810;55.848;37.368;2022-07-03T14:08:28;98993.16;;;29.25;26.66
44148;BME280;29810;55.848;37.368;2022-07-03T14:11:30;98998.94;;;29.14;26.05
44148;BME280;29810;55.848;37.368;2022-07-03T14:14:31;98998.28;;;29.12;25.57
44148;BME280;29810;55.848;37.368;2022-07-03T14:17:33;98994.25;;;29.16;25.99
44148;BME280;29810;55.848;37.368;2022-07-03T14:20:34;99001.53;;;29.07;26.28
44148;BME280;29810;55.848;37.368;2022-07-03T14:23:36;98991.56;;;29.16;26.27
44148;BME280;29810;55.848;37.368;2022-07-03T14:26:45;98988.94;;;29.07;26.45
44148;BME280;29810;55.848;37.368;2022-07-03T14:30:05;98984.81;;;29.20;26.27
44148;BME280;29810;55.848;37.368;2022-07-03T14:33:26;98982.84;;;29.14;26.63
44148;BME280;29810;55.848;37.368;2022-07-03T14:36:28;98982.31;;;29.18;26.76
44148;BME280;29810;55.848;37.368;2022-07-03T14:39:30;98981.16;;;29.13;26.76
44148;BME280;29810;55.848;37.368;2022-07-03T14:42:31;98978.13;;;29.16;27.01
44148;BME280;29810;55.848;37.368;2022-07-03T14:45:33;98982.25;;;29.27;26.95
44148;BME280;29810;55.848;37.368;2022-07-03T14:48:35;98989.22;;;29.13;27.09
44148;BME280;29810;55.848;37.368;2022-07-03T14:51:36;98984.41;;;29.08;27.34
44148;BME280;29810;55.848;37.368;2022-07-03T14:54:40;98987.72;;;28.95;27.24
44148;BME280;29810;55.848;37.368;2022-07-03T14:57:48;98988.72;;;28.94;27.70
44148;BME280;29810;55.848;37.368;2022-07-03T15:00:54;98997.19;;;28.83;27.82
44148;BME280;29810;55.848;37.368;2022-07-03T15:04:00;98996.91;;;28.78;27.42
44148;BME280;29810;55.848;37.368;2022-07-03T15:07:04;98993.28;;;28.70;27.46
44148;BME280;29810;55.848;37.368;2022-07-03T15:10:12;98976.88;;;28.88;27.88
44148;BME280;29810;55.848;37.368;2022-07-03T15:13:14;98986.34;;;28.99;27.84
44148;BME280;29810;55.848;37.368;2022-07-03T15:16:16;98984.97;;;28.80;28.31
44148;BME280;29810;55.848;37.368;2022-07-03T15:19:19;98990.19;;;28.82;28.42
44148;BME280;29810;55.848;37.368;2022-07-03T15:22:24;98981.53;;;28.71;28.31
44148;BME280;29810;55.848;37.368;2022-07-03T15:25:32;98982.97;;;28.82;28.18
44148;BME280;29810;55.848;37.368;2022-07-03T15:28:34;98977.97;;;28.79;28.23
44148;BME280;29810;55.848;37.368;2022-07-03T15:31:37;98977.13;;;28.79;27.99
44148;BME280;29810;55.848;37.368;2022-07-03T15:34:39;98979.47;;;28.82;27.93
44148;BME280;29810;55.848;37.368;2022-07-03T15:38:10;98982.66;;;28.77;28.09
44148;BME280;29810;55.848;37.368;2022-07-03T15:41:21;98989.50;;;28.80;27.67
44148;BME280;29810;55.848;37.368;2022-07-03T15:44:33;98993.91;;;28.72;27.38
44148;BME280;29810;55.848;37.368;2022-07-03T15:51:22;98997.63;;;28.71;27.51
44148;BME280;29810;55.848;37.368;2022-07-03T15:54:37;98999.06;;;28.82;27.50
44148;BME280;29810;55.848;37.368;2022-07-03T16:00:44;99007.66;;;28.46;28.00
44148;BME280;29810;55.848;37.368;2022-07-03T16:04:17;98997.34;;;28.35;28.26
44148;BME280;29810;55.848;37.368;2022-07-03T16:07:22;99001.56;;;28.29;28.53
44148;BME280;29810;55.848;37.368;2022-07-03T16:10:25;99015.81;;;28.30;28.75
44148;BME280;29810;55.848;37.368;2022-07-03T16:13:27;99006.12;;;28.20;28.60
44148;BME280;29810;55.848;37.368;2022-07-03T16:16:31;99011.00;;;28.17;28.41
44148;BME280;29810;55.848;37.368;2022-07-03T16:19:34;99003.84;;;28.09;28.31
44148;BME280;29810;55.848;37.368;2022-07-03T16:22:37;99000.50;;;27.99;28.34
44148;BME280;29810;55.848;37.368;2022-07-03T16:25:39;99003.37;;;27.97;28.42
44148;BME280;29810;55.848;37.368;2022-07-03T16:28:42;98985.66;;;27.88;28.25
44148;BME280;29810;55.848;37.368;2022-07-03T16:31:47;98998.25;;;27.79;28.38
44148;BME280;29810;55.848;37.368;2022-07-03T16:34:56;99015.78;;;27.90;28.20
44148;BME280;29810;55.848;37.368;2022-07-03T16:38:05;99017.81;;;27.88;28.02
44148;BME280;29810;55.848;37.368;2022-07-03T16:41:11;99020.50;;;27.80;27.99
44148;BME280;29810;55.848;37.368;2022-07-03T16:44:13;99010.69;;;27.64;27.82
44148;BME280;29810;55.848;37.368;2022-07-03T16:47:15;99019.72;;;27.63;27.69
44148;BME280;29810;55.848;37.368;2022-07-03T16:50:21;99024.25;;;27.62;28.06
44148;BME280;29810;55.848;37.368;2022-07-03T16:53:24;99029.09;;;27.58;27.85
44148;BME280;29810;55.848;37.368;2022-07-03T16:56:26;99027.63;;;27.48;27.85
44148;BME280;29810;55.848;37.368;2022-07-03T16:59:30;99030.97;;;27.50;27.45
44148;BME280;29810;55.848;37.368;2022-07-03T17:02:33;99026.94;;;27.46;27.56
44148;BME280;29810;55.848;37.368;2022-07-03T17:05:36;99027.09;;;27.36;27.70
44148;BME280;29810;55.848;37.368;2022-07-03T17:08:38;99030.12;;;27.33;27.30